Time;durP1;ratioP1;P1;durP2;ratioP2;P2;SDS_P1;SDS_P2;PMS_P1;PMS_P2;Temp;Humidity;BMP_temperature;BMP_pressure;BME280_temperature;BME280_humidity;BME280_pressure;Samples;Min_cycle;Max_cycle;Signal;HPM_P1;HPM_P2
2023/05/10 00:00:51;;;;;;;;;;;;;;;13.42;100.00;95879.78;4982549;28;19992;-71
2023/05/10 00:03:17;;;;;;;;;;;;;;;13.40;100.00;95879.22;4982639;28;19980;-71
2023/05/10 00:05:43;;;;;;;;;;;;;;;13.38;100.00;95881.31;5048883;28;19962;-72
2023/05/10 00:08:09;;;;;;;;;;;;;;;13.29;100.00;95882.78;4982521;28;19987;-70
2023/05/10 00:10:36;;;;;;;;;;;;;;;13.19;100.00;95884.25;4982206;28;19957;-71
2023/05/10 00:13:01;;;;;;;;;;;;;;;13.13;100.00;95876.56;4984941;28;19961;-71
2023/05/10 00:15:30;;;;;;;;;;;;;;;13.08;100.00;95885.19;4985359;28;19959;-74
2023/05/10 00:17:56;;;;;;;;;;;;;;;13.08;100.00;95881.75;4985676;28;20239;-74
2023/05/10 00:20:22;;;;;;;;;;;;;;;13.04;100.00;95880.66;4985241;28;20151;-74
2023/05/10 00:22:48;;;;;;;;;;;;;;;13.03;100.00;95884.34;4985679;28;19959;-74
2023/05/10 00:25:14;;;;;;;;;;;;;;;12.98;100.00;95892.97;4985658;28;19960;-74
2023/05/10 00:27:40;;;;;;;;;;;;;;;12.93;100.00;95880.53;4985688;28;20013;-73
2023/05/10 00:30:06;;;;;;;;;;;;;;;12.91;100.00;95882.63;4985622;28;20002;-70
2023/05/10 00:32:32;;;;;;;;;;;;;;;12.89;100.00;95878.66;4985696;28;19974;-78
2023/05/10 00:34:58;;;;;;;;;;;;;;;12.88;100.00;95882.34;4985141;28;19954;-73
2023/05/10 00:37:24;;;;;;;;;;;;;;;12.86;100.00;95887.84;4985131;28;19963;-73
2023/05/10 00:39:50;;;;;;;;;;;;;;;12.90;100.00;95888.16;4985503;28;20025;-73
2023/05/10 00:42:15;;;;;;;;;;;;;;;12.91;100.00;95893.16;4985591;28;19958;-74
2023/05/10 00:44:41;;;;;;;;;;;;;;;12.94;100.00;95897.94;4985145;28;19951;-74
2023/05/10 00:47:08;;;;;;;;;;;;;;;12.96;100.00;95902.97;4985098;28;19966;-74
2023/05/10 00:49:35;;;;;;;;;;;;;;;12.98;100.00;95901.66;4984764;28;19951;-70
2023/05/10 00:52:01;;;;;;;;;;;;;;;12.99;100.00;95900.59;4985214;28;19953;-72
2023/05/10 00:54:27;;;;;;;;;;;;;;;12.99;100.00;95902.47;4985378;28;19955;-72
2023/05/10 00:56:53;;;;;;;;;;;;;;;12.99;100.00;95905.09;4985299;28;19957;-72
2023/05/10 00:59:19;;;;;;;;;;;;;;;12.98;100.00;95901.66;4985202;28;19954;-72
2023/05/10 01:01:46;;;;;;;;;;;;;;;12.98;100.00;95909.56;4985294;28;19945;-72
2023/05/10 01:04:12;;;;;;;;;;;;;;;12.99;100.00;95903.25;4984812;28;19960;-72
2023/05/10 01:06:39;;;;;;;;;;;;;;;13.00;100.00;95907.47;4985137;28;20262;-77
2023/05/10 01:09:06;;;;;;;;;;;;;;;13.00;100.00;95914.59;4984389;28;20248;-72
2023/05/10 01:11:33;;;;;;;;;;;;;;;12.99;100.00;95915.63;5035594;28;19968;-75
2023/05/10 01:13:59;;;;;;;;;;;;;;;12.93;100.00;95917.38;4984670;28;19983;-74
2023/05/10 01:16:26;;;;;;;;;;;;;;;12.94;100.00;95920.84;4984932;28;20235;-75
2023/05/10 01:18:52;;;;;;;;;;;;;;;12.91;100.00;95921.31;4984889;28;19962;-75
2023/05/10 01:21:18;;;;;;;;;;;;;;;12.88;100.00;95917.34;4984955;28;19980;-75
2023/05/10 01:24:02;;;;;;;;;;;;;;;12.84;100.00;95920.72;4983693;28;20292;-75
2023/05/10 01:26:28;;;;;;;;;;;;;;;12.79;100.00;95924.06;4983942;28;19962;-72
2023/05/10 01:29:13;;;;;;;;;;;;;;;12.77;100.00;95920.91;4984462;28;19964;-70
2023/05/10 01:31:57;;;;;;;;;;;;;;;12.71;100.00;95927.91;4984112;28;20137;-70
2023/05/10 01:34:32;;;;;;;;;;;;;;;12.61;100.00;95927.78;4984289;28;19953;-69
2023/05/10 01:37:13;;;;;;;;;;;;;;;12.56;100.00;95933.00;4984386;28;19963;-69
2023/05/10 01:39:57;;;;;;;;;;;;;;;12.52;100.00;95930.03;4983970;28;20251;-70
2023/05/10 01:42:25;;;;;;;;;;;;;;;12.48;100.00;95926.31;4984147;28;20276;-69
2023/05/10 01:44:54;;;;;;;;;;;;;;;12.49;100.00;95930.50;4984265;28;20139;-74
2023/05/10 01:47:38;;;;;;;;;;;;;;;12.49;100.00;95932.34;4983884;28;20143;-68
2023/05/10 01:50:06;;;;;;;;;;;;;;;12.51;100.00;95935.53;4984341;28;19954;-69
2023/05/10 01:52:41;;;;;;;;;;;;;;;12.51;100.00;95943.44;4983927;28;20125;-69
2023/05/10 01:55:09;;;;;;;;;;;;;;;12.50;100.00;95950.53;4984189;28;19956;-69
2023/05/10 01:57:35;;;;;;;;;;;;;;;12.49;100.00;95942.88;4984829;28;19957;-69
2023/05/10 02:00:03;;;;;;;;;;;;;;;12.48;100.00;95951.81;4984053;28;19959;-69
2023/05/10 02:02:29;;;;;;;;;;;;;;;12.44;100.00;95951.50;4984225;28;20132;-74
2023/05/10 02:04:56;;;;;;;;;;;;;;;12.45;100.00;95950.47;4983595;28;19954;-70
2023/05/10 02:07:23;;;;;;;;;;;;;;;12.45;100.00;95955.72;4983486;28;19969;-69
2023/05/10 02:09:50;;;;;;;;;;;;;;;12.46;100.00;95954.69;4983807;28;19954;-69
2023/05/10 02:12:17;;;;;;;;;;;;;;;12.46;100.00;95965.19;4983814;28;19959;-69
2023/05/10 02:14:44;;;;;;;;;;;;;;;12.45;100.00;95957.53;4983864;28;19955;-69
2023/05/10 02:17:11;;;;;;;;;;;;;;;12.45;100.00;95950.47;4983863;28;19963;-69
2023/05/10 02:19:38;;;;;;;;;;;;;;;12.46;100.00;95961.78;4984045;28;20224;-69
2023/05/10 02:22:04;;;;;;;;;;;;;;;12.43;100.00;95963.06;4983853;28;19958;-68
2023/05/10 02:24:31;;;;;;;;;;;;;;;12.42;100.00;95974.59;4984008;28;20159;-74
2023/05/10 02:26:58;;;;;;;;;;;;;;;12.39;100.00;95964.56;4983819;28;19976;-74
2023/05/10 02:29:24;;;;;;;;;;;;;;;12.39;100.00;95965.38;4983860;28;19958;-74
2023/05/10 02:31:54;;;;;;;;;;;;;;;12.39;100.00;95977.72;4983468;28;19966;-74
2023/05/10 02:34:25;;;;;;;;;;;;;;;12.40;100.00;95971.41;4983172;28;19971;-74
2023/05/10 02:36:52;;;;;;;;;;;;;;;12.39;100.00;95986.41;4983938;28;19957;-74
2023/05/10 02:39:19;;;;;;;;;;;;;;;12.39;100.00;95983.78;4983372;28;19968;-70
2023/05/10 02:41:46;;;;;;;;;;;;;;;12.39;100.00;95986.41;4983490;28;20133;-69
2023/05/10 02:44:14;;;;;;;;;;;;;;;12.40;100.00;95981.94;4983449;28;19968;-69
2023/05/10 02:46:39;;;;;;;;;;;;;;;12.40;100.00;95987.19;4983382;28;19975;-69
2023/05/10 02:49:06;;;;;;;;;;;;;;;12.41;100.00;95985.34;4983654;28;19970;-69
2023/05/10 02:51:34;;;;;;;;;;;;;;;12.40;100.00;95979.31;4983522;28;19954;-69
2023/05/10 02:54:19;;;;;;;;;;;;;;;12.38;100.00;95976.13;4983731;28;19958;-69
2023/05/10 02:56:51;;;;;;;;;;;;;;;12.37;100.00;95985.84;4983721;28;19964;-73
2023/05/10 02:59:16;;;;;;;;;;;;;;;12.35;100.00;95985.28;4983085;28;19958;-68
2023/05/10 03:01:42;;;;;;;;;;;;;;;12.32;100.00;95985.75;4982853;28;19958;-68
2023/05/10 03:04:08;;;;;;;;;;;;;;;12.32;100.00;95985.75;4983505;28;19959;-68
2023/05/10 03:06:34;;;;;;;;;;;;;;;12.33;100.00;95989.19;4983175;28;19966;-69
2023/05/10 03:09:01;;;;;;;;;;;;;;;12.27;100.00;95992.78;4983044;28;19954;-69
2023/05/10 03:11:36;;;;;;;;;;;;;;;12.17;100.00;95985.53;4983258;28;19972;-68
2023/05/10 03:14:34;;;;;;;;;;;;;;;12.14;100.00;95992.06;4983293;28;19964;-68
2023/05/10 03:17:07;;;;;;;;;;;;;;;12.15;100.00;95993.63;5005018;28;19965;-70
2023/05/10 03:19:39;;;;;;;;;;;;;;;12.12;100.00;95995.97;4983113;28;19959;-77
2023/05/10 03:22:08;;;;;;;;;;;;;;;12.12;100.00;95991.50;4982992;28;20153;-77
2023/05/10 03:24:35;;;;;;;;;;;;;;;12.13;100.00;95994.91;4982874;28;19956;-78
2023/05/10 03:27:02;;;;;;;;;;;;;;;12.07;100.00;95991.41;4982681;28;19977;-76
2023/05/10 03:29:29;;;;;;;;;;;;;;;12.05;100.00;96003.19;4982635;28;19954;-77
2023/05/10 03:31:55;;;;;;;;;;;;;;;12.03;100.00;96005.25;4982057;28;20020;-76
2023/05/10 03:34:24;;;;;;;;;;;;;;;12.03;100.00;96000.78;4982664;28;20244;-70
2023/05/10 03:36:50;;;;;;;;;;;;;;;12.06;100.00;95999.56;4982606;28;19956;-73
2023/05/10 03:39:16;;;;;;;;;;;;;;;12.04;100.00;96004.25;4982792;28;19942;-70
2023/05/10 03:41:42;;;;;;;;;;;;;;;12.04;100.00;96005.03;4982703;28;20132;-70
2023/05/10 03:44:08;;;;;;;;;;;;;;;12.05;100.00;96005.81;4983001;28;19959;-70
2023/05/10 03:46:33;;;;;;;;;;;;;;;12.06;100.00;96010.06;4981672;28;19970;-70
2023/05/10 03:48:59;;;;;;;;;;;;;;;12.03;100.00;96008.69;4982475;28;19958;-70
2023/05/10 03:51:27;;;;;;;;;;;;;;;12.00;100.00;96000.50;4982037;28;20001;-70
2023/05/10 03:53:54;;;;;;;;;;;;;;;12.01;100.00;96008.16;4982347;28;19957;-71
2023/05/10 03:56:20;;;;;;;;;;;;;;;11.98;100.00;95998.09;4982250;28;19954;-69
2023/05/10 03:58:46;;;;;;;;;;;;;;;11.96;100.00;96003.59;4982549;28;19963;-68
2023/05/10 04:01:12;;;;;;;;;;;;;;;11.97;100.00;96005.19;4982674;28;19964;-68
2023/05/10 04:03:38;;;;;;;;;;;;;;;11.93;100.00;96001.44;4982372;28;19953;-68
2023/05/10 04:06:04;;;;;;;;;;;;;;;11.91;100.00;96000.09;4982174;28;19971;-69
2023/05/10 04:08:30;;;;;;;;;;;;;;;11.90;100.00;96003.75;4981713;28;19956;-69
2023/05/10 04:11:09;;;;;;;;;;;;;;;11.92;100.00;96006.94;4982093;28;19987;-81
2023/05/10 04:13:35;;;;;;;;;;;;;;;11.93;100.00;96006.69;4982396;28;20131;-70
2023/05/10 04:16:01;;;;;;;;;;;;;;;11.95;100.00;96007.25;4981855;28;19966;-68
2023/05/10 04:18:27;;;;;;;;;;;;;;;11.97;100.00;96004.41;4981904;28;19969;-68
2023/05/10 04:20:52;;;;;;;;;;;;;;;11.98;100.00;96004.13;4981698;28;20000;-69
2023/05/10 04:23:18;;;;;;;;;;;;;;;12.01;100.00;96004.69;4982213;28;19957;-68
2023/05/10 04:25:44;;;;;;;;;;;;;;;12.03;100.00;96016.56;4981855;28;19976;-69
2023/05/10 04:28:10;;;;;;;;;;;;;;;12.03;100.00;96006.06;4981709;28;19963;-69
2023/05/10 04:30:36;;;;;;;;;;;;;;;12.04;100.00;96014.75;4982014;28;20024;-82
2023/05/10 04:33:02;;;;;;;;;;;;;;;12.06;100.00;96002.19;4981727;28;20018;-75
2023/05/10 04:35:28;;;;;;;;;;;;;;;12.07;100.00;96004.53;4981274;28;20282;-75
2023/05/10 04:37:54;;;;;;;;;;;;;;;12.10;100.00;96016.44;4981801;28;19964;-74
2023/05/10 04:40:20;;;;;;;;;;;;;;;12.13;100.00;96023.84;4981543;28;19955;-75
2023/05/10 04:42:46;;;;;;;;;;;;;;;12.14;100.00;96013.09;4981221;28;19995;-75
2023/05/10 04:45:12;;;;;;;;;;;;;;;12.14;100.00;96020.97;4981517;28;19959;-75
2023/05/10 04:47:38;;;;;;;;;;;;;;;12.17;100.00;96020.47;4981462;28;20236;-75
2023/05/10 04:50:04;;;;;;;;;;;;;;;12.19;100.00;96017.63;4981211;28;19990;-81
2023/05/10 04:52:30;;;;;;;;;;;;;;;12.22;100.00;96024.22;5048316;28;19959;-71
2023/05/10 04:54:56;;;;;;;;;;;;;;;12.24;100.00;96017.72;4981412;28;19959;-71
2023/05/10 04:57:22;;;;;;;;;;;;;;;12.23;100.00;96029.25;4981521;28;19953;-71
2023/05/10 04:59:47;;;;;;;;;;;;;;;12.23;100.00;96026.63;4984165;28;20021;-72
2023/05/10 05:02:13;;;;;;;;;;;;;;;12.25;100.00;96032.44;4984778;28;19965;-71
2023/05/10 05:04:39;;;;;;;;;;;;;;;12.23;100.00;96026.63;4984934;28;19956;-71
2023/05/10 05:07:06;;;;;;;;;;;;;;;12.23;100.00;96037.16;4985083;28;19956;-71
2023/05/10 05:09:31;;;;;;;;;;;;;;;12.21;100.00;96033.97;4985104;28;19967;-76
2023/05/10 05:11:57;;;;;;;;;;;;;;;12.19;100.00;96036.03;4984407;28;19955;-76
2023/05/10 05:14:25;;;;;;;;;;;;;;;12.19;100.00;96036.03;4984672;28;19964;-76
2023/05/10 05:16:51;;;;;;;;;;;;;;;12.18;100.00;96040.50;4984283;28;19951;-76
2023/05/10 05:19:17;;;;;;;;;;;;;;;12.18;100.00;96040.50;4984047;28;19964;-76
2023/05/10 05:21:43;;;;;;;;;;;;;;;12.21;100.00;96038.44;5051872;28;19960;-76
2023/05/10 05:24:09;;;;;;;;;;;;;;;12.22;100.00;96048.72;4984457;28;19957;-76
2023/05/10 05:26:36;;;;;;;;;;;;;;;12.19;100.00;96039.44;4984410;28;20295;-70
2023/05/10 05:29:02;;;;;;;;;;;;;;;12.12;100.00;96044.06;4984396;28;19956;-68
2023/05/10 05:31:28;;;;;;;;;;;;;;;12.08;100.00;96044.78;4984509;28;19960;-66
2023/05/10 05:33:55;;;;;;;;;;;;;;;12.13;100.00;96043.03;4984453;28;19954;-68
2023/05/10 05:36:21;;;;;;;;;;;;;;;12.31;100.00;96042.03;4984660;28;19946;-66
2023/05/10 05:38:46;;;;;;;;;;;;;;;12.58;100.00;96041.38;4984472;28;19990;-66
2023/05/10 05:41:12;;;;;;;;;;;;;;;12.76;100.00;96046.38;4984159;28;20265;-68
2023/05/10 05:43:38;;;;;;;;;;;;;;;12.80;100.00;96049.31;4983933;28;19961;-74
2023/05/10 05:46:04;;;;;;;;;;;;;;;12.71;100.00;96053.41;5034121;28;20007;-82
2023/05/10 05:48:30;;;;;;;;;;;;;;;12.59;100.00;96050.84;4983869;28;19969;-82
2023/05/10 05:50:56;;;;;;;;;;;;;;;12.50;100.00;96054.94;4984065;28;19977;-82
2023/05/10 05:53:23;;;;;;;;;;;;;;;12.46;100.00;96059.09;4984552;28;19969;-82
2023/05/10 05:55:53;;;;;;;;;;;;;;;12.42;100.00;96053.50;4984305;28;19969;-82
2023/05/10 05:58:18;;;;;;;;;;;;;;;12.38;100.00;96055.00;4984176;28;20147;-81
2023/05/10 06:00:44;;;;;;;;;;;;;;;12.37;100.00;96054.22;4984386;28;19956;-74
2023/05/10 06:03:10;;;;;;;;;;;;;;;12.36;100.00;96052.59;4984188;28;19958;-71
2023/05/10 06:05:36;;;;;;;;;;;;;;;12.35;100.00;96060.75;4984005;28;19955;-71
2023/05/10 06:08:02;;;;;;;;;;;;;;;12.34;100.00;96062.56;4984020;28;19965;-71
2023/05/10 06:10:28;;;;;;;;;;;;;;;12.28;100.00;96068.78;4983310;28;20246;-71
2023/05/10 06:12:54;;;;;;;;;;;;;;;12.26;100.00;96070.84;4983796;28;19969;-71
2023/05/10 06:15:20;;;;;;;;;;;;;;;12.26;100.00;96068.22;4983833;28;20017;-70
2023/05/10 06:17:46;;;;;;;;;;;;;;;12.24;100.00;96070.31;4984081;28;19961;-71
2023/05/10 06:20:13;;;;;;;;;;;;;;;12.28;100.00;96071.41;4983936;28;19960;-76
2023/05/10 06:22:38;;;;;;;;;;;;;;;12.33;100.00;96081.22;4983895;28;20181;-71
2023/05/10 06:25:04;;;;;;;;;;;;;;;12.43;100.00;96083.22;4984009;28;19961;-71
2023/05/10 06:27:30;;;;;;;;;;;;;;;12.52;100.00;96084.44;4983920;28;19969;-71
2023/05/10 06:29:56;;;;;;;;;;;;;;;12.60;100.00;96091.94;4983919;28;19955;-71
2023/05/10 06:32:22;;;;;;;;;;;;;;;12.68;100.00;96098.59;4983854;28;19956;-71
2023/05/10 06:34:48;;;;;;;;;;;;;;;12.72;100.00;96099.72;4983339;28;20115;-71
2023/05/10 06:37:14;;;;;;;;;;;;;;;12.72;100.00;96094.47;4983740;28;19992;-71
2023/05/10 06:39:40;;;;;;;;;;;;;;;12.66;100.00;96098.88;4983435;28;20203;-80
2023/05/10 06:42:06;;;;;;;;;;;;;;;12.64;100.00;96093.03;4983405;28;19962;-74
2023/05/10 06:44:31;;;;;;;;;;;;;;;12.63;100.00;96085.38;4983848;28;20247;-74
2023/05/10 06:46:57;;;;;;;;;;;;;;;12.63;100.00;96093.28;4983429;28;20003;-75
2023/05/10 06:49:23;;;;;;;;;;;;;;;12.67;100.00;96097.03;4983441;28;19955;-74
2023/05/10 06:51:49;;;;;;;;;;;;;;;12.70;100.00;96094.69;4983392;28;20001;-76
2023/05/10 06:54:15;;;;;;;;;;;;;;;12.72;100.00;96097.88;4983496;28;19963;-74
2023/05/10 06:56:41;;;;;;;;;;;;;;;12.71;100.00;96098.13;4983515;28;19995;-79
2023/05/10 06:59:07;;;;;;;;;;;;;;;12.68;100.00;96099.41;4983419;28;20236;-71
2023/05/10 07:01:33;;;;;;;;;;;;;;;12.65;100.00;96105.16;4983506;28;20128;-70
2023/05/10 07:03:58;;;;;;;;;;;;;;;12.70;100.00;96093.91;4983381;28;19955;-70
2023/05/10 07:06:24;;;;;;;;;;;;;;;12.72;100.00;96100.50;4983048;28;19976;-70
2023/05/10 07:08:50;;;;;;;;;;;;;;;12.70;100.00;96099.16;5050427;28;19957;-71
2023/05/10 07:11:16;;;;;;;;;;;;;;;12.71;100.00;96100.78;4982927;28;19987;-70
2023/05/10 07:13:44;;;;;;;;;;;;;;;12.73;100.00;96096.06;4982932;28;20133;-70
2023/05/10 07:16:10;;;;;;;;;;;;;;;12.73;100.00;96093.44;5049692;28;20148;-76
2023/05/10 07:18:36;;;;;;;;;;;;;;;12.77;100.00;96097.97;4982912;28;20228;-74
2023/05/10 07:21:02;;;;;;;;;;;;;;;12.78;100.00;96104.81;4982029;28;19961;-74
2023/05/10 07:23:29;;;;;;;;;;;;;;;12.82;100.00;96106.97;4982951;28;19952;-73
2023/05/10 07:25:57;;;;;;;;;;;;;;;12.86;100.00;96101.00;4983001;28;19963;-73
2023/05/10 07:28:24;;;;;;;;;;;;;;;12.88;100.00;96106.81;5049542;28;19971;-74
2023/05/10 07:30:50;;;;;;;;;;;;;;;12.94;100.00;96100.59;4983163;28;20155;-74
2023/05/10 07:33:15;;;;;;;;;;;;;;;13.00;100.00;96098.84;4983235;28;20215;-68
2023/05/10 07:35:42;;;;;;;;;;;;;;;13.07;100.00;96098.66;4983086;28;19978;-81
2023/05/10 07:38:08;;;;;;;;;;;;;;;13.07;100.00;96093.41;4983311;28;19979;-71
2023/05/10 07:40:34;;;;;;;;;;;;;;;13.11;100.00;96097.94;4982583;28;20244;-71
2023/05/10 07:43:01;;;;;;;;;;;;;;;13.16;100.00;96105.09;4983038;28;20229;-71
2023/05/10 07:45:27;;;;;;;;;;;;;;;13.19;100.00;96110.69;4982637;28;19955;-71
2023/05/10 07:47:53;;;;;;;;;;;;;;;13.25;100.00;96110.75;4982632;28;19960;-72
2023/05/10 07:50:20;;;;;;;;;;;;;;;13.30;100.00;96100.31;4982838;28;20173;-71
2023/05/10 07:52:47;;;;;;;;;;;;;;;13.33;100.00;96113.00;4982649;28;19951;-70
2023/05/10 07:55:13;;;;;;;;;;;;;;;13.33;100.00;96103.28;4982768;28;20286;-74
2023/05/10 07:57:39;;;;;;;;;;;;;;;13.34;100.00;96107.50;4982714;28;19961;-74
2023/05/10 08:00:06;;;;;;;;;;;;;;;13.39;100.00;96106.75;4982150;28;19963;-74
2023/05/10 08:02:32;;;;;;;;;;;;;;;13.47;100.00;96108.97;4982183;28;19941;-74
2023/05/10 08:04:58;;;;;;;;;;;;;;;13.53;100.00;96100.09;4982662;28;19958;-75
2023/05/10 08:07:24;;;;;;;;;;;;;;;13.57;100.00;96109.09;4982152;28;20152;-74
2023/05/10 08:09:50;;;;;;;;;;;;;;;13.61;100.00;96104.16;4982420;28;19957;-73
2023/05/10 08:12:16;;;;;;;;;;;;;;;13.70;100.00;96096.59;4982291;28;20204;-80
2023/05/10 08:14:42;;;;;;;;;;;;;;;13.78;100.00;96112.00;4982230;28;19960;-74
2023/05/10 08:17:08;;;;;;;;;;;;;;;13.83;100.00;96098.06;4982181;28;19962;-74
2023/05/10 08:19:34;;;;;;;;;;;;;;;13.91;100.00;96124.78;4982463;28;19961;-74
2023/05/10 08:22:00;;;;;;;;;;;;;;;13.98;100.00;96106.13;4982259;28;20035;-75
2023/05/10 08:24:26;;;;;;;;;;;;;;;13.99;100.00;96119.06;4982347;28;20297;-74
2023/05/10 08:26:52;;;;;;;;;;;;;;;14.00;100.00;96120.66;4982263;28;20014;-75
2023/05/10 08:29:18;;;;;;;;;;;;;;;13.98;100.00;96127.22;4981770;28;19963;-70
2023/05/10 08:31:45;;;;;;;;;;;;;;;13.97;100.00;96121.16;4982352;28;20265;-80
2023/05/10 08:34:10;;;;;;;;;;;;;;;13.96;100.00;96106.41;4984784;28;20136;-81
2023/05/10 08:36:36;;;;;;;;;;;;;;;13.99;100.00;96126.97;4985207;28;19961;-83
2023/05/10 08:39:02;;;;;;;;;;;;;;;13.99;100.00;96120.91;4985229;28;19957;-82
2023/05/10 08:41:29;;;;;;;;;;;;;;;14.06;100.00;96131.25;4985608;28;20131;-81
2023/05/10 08:43:55;;;;;;;;;;;;;;;14.20;100.00;96120.06;4985725;28;19951;-82
2023/05/10 08:46:22;;;;;;;;;;;;;;;14.28;100.00;96118.03;4985232;28;20050;-76
2023/05/10 08:48:49;;;;;;;;;;;;;;;14.30;100.00;96111.47;4984887;28;20143;-71
2023/05/10 08:51:17;;;;;;;;;;;;;;;14.31;100.00;96128.09;4985402;28;19959;-71
2023/05/10 08:53:44;;;;;;;;;;;;;;;14.28;99.81;96125.94;4985356;28;19952;-71
2023/05/10 08:56:10;;;;;;;;;;;;;;;14.28;97.20;96116.22;4985247;28;19963;-71
2023/05/10 08:58:36;;;;;;;;;;;;;;;14.27;97.04;96116.44;5052046;28;19964;-71
2023/05/10 09:01:02;;;;;;;;;;;;;;;14.24;99.48;96127.47;4985193;28;19963;-72
2023/05/10 09:03:28;;;;;;;;;;;;;;;14.27;98.04;96130.44;4984786;28;20022;-71
2023/05/10 09:05:55;;;;;;;;;;;;;;;14.23;95.97;96118.00;4984775;28;20028;-75
2023/05/10 09:08:25;;;;;;;;;;;;;;;14.21;94.63;96115.59;4985157;28;20265;-74
2023/05/10 09:10:51;;;;;;;;;;;;;;;14.24;98.06;96133.56;4985157;28;20104;-74
2023/05/10 09:13:16;;;;;;;;;;;;;;;14.25;98.26;96132.50;4984828;28;19969;-74
2023/05/10 09:15:43;;;;;;;;;;;;;;;14.27;93.09;96103.25;4984786;28;19954;-74
2023/05/10 09:18:09;;;;;;;;;;;;;;;14.37;100.00;96143.72;4984819;28;19968;-75
2023/05/10 09:20:35;;;;;;;;;;;;;;;14.47;93.94;96106.09;4985122;28;19952;-75
2023/05/10 09:23:01;;;;;;;;;;;;;;;14.56;96.11;96128.34;4984987;28;20239;-74
2023/05/10 09:25:27;;;;;;;;;;;;;;;14.70;98.05;96143.75;4984945;28;20139;-70
2023/05/10 09:27:53;;;;;;;;;;;;;;;14.80;98.65;96136.75;4984835;28;20013;-74
2023/05/10 09:30:26;;;;;;;;;;;;;;;14.87;94.46;96114.63;5051242;28;19943;-72
2023/05/10 09:32:52;;;;;;;;;;;;;;;14.90;93.27;96103.53;4984806;28;19963;-73
2023/05/10 09:35:19;;;;;;;;;;;;;;;14.91;94.73;96124.44;4984847;28;19957;-72
2023/05/10 09:37:50;;;;;;;;;;;;;;;14.93;94.42;96117.03;4984430;28;19962;-72
2023/05/10 09:40:19;;;;;;;;;;;;;;;14.99;96.35;96134.53;4984077;28;20128;-72
2023/05/10 09:42:51;;;;;;;;;;;;;;;15.07;94.88;96124.53;4984490;28;19957;-74
2023/05/10 09:45:17;;;;;;;;;;;;;;;15.00;90.08;96104.41;4983857;28;19980;-72
2023/05/10 09:47:42;;;;;;;;;;;;;;;14.98;89.11;96098.59;4984440;28;20183;-71
2023/05/10 09:50:09;;;;;;;;;;;;;;;14.98;87.32;96092.50;4984558;28;20009;-72
2023/05/10 09:52:51;;;;;;;;;;;;;;;14.96;90.54;96113.09;4984519;28;19954;-72
2023/05/10 09:55:18;;;;;;;;;;;;;;;14.88;92.88;96134.69;4984510;28;19970;-72
2023/05/10 09:57:45;;;;;;;;;;;;;;;14.87;92.62;96122.53;4984044;28;19967;-72
2023/05/10 10:00:16;;;;;;;;;;;;;;;14.86;90.78;96124.38;5051360;28;19968;-70
2023/05/10 10:02:41;;;;;;;;;;;;;;;14.85;94.25;96140.47;4984265;28;19962;-87
2023/05/10 10:05:08;;;;;;;;;;;;;;;14.86;92.21;96134.94;4984016;28;20027;-74
2023/05/10 10:07:34;;;;;;;;;;;;;;;14.85;93.12;96143.91;4984022;28;19967;-75
2023/05/10 10:10:00;;;;;;;;;;;;;;;14.82;90.84;96118.81;4984039;28;19969;-75
2023/05/10 10:12:26;;;;;;;;;;;;;;;14.78;91.82;96125.66;4984085;28;19964;-74
2023/05/10 10:14:53;;;;;;;;;;;;;;;14.75;91.54;96122.72;4984145;28;19961;-74
2023/05/10 10:17:19;;;;;;;;;;;;;;;14.75;92.75;96130.63;4984081;28;19968;-74
2023/05/10 10:19:45;;;;;;;;;;;;;;;14.72;91.91;96137.22;4984026;28;20241;-71
2023/05/10 10:22:11;;;;;;;;;;;;;;;14.66;90.73;96127.66;4984075;28;19953;-70
2023/05/10 10:24:39;;;;;;;;;;;;;;;14.61;91.54;96140.78;5051107;28;20153;-70
2023/05/10 10:27:17;;;;;;;;;;;;;;;14.50;89.44;96124.03;4983509;28;19968;-70
2023/05/10 10:29:59;;;;;;;;;;;;;;;14.31;88.35;96125.47;4983663;28;19954;-70
2023/05/10 10:32:51;;;;;;;;;;;;;;;13.95;87.12;96128.50;4983845;28;19959;-71
2023/05/10 10:35:17;;;;;;;;;;;;;;;13.61;88.30;96133.13;4998515;28;19975;-70
2023/05/10 10:37:46;;;;;;;;;;;;;;;13.36;90.69;96160.72;4983839;28;19960;-75
2023/05/10 10:40:23;;;;;;;;;;;;;;;13.28;93.71;96178.75;4983764;28;20084;-70
2023/05/10 10:42:49;;;;;;;;;;;;;;;13.17;94.98;96181.22;4983578;28;20264;-70
2023/05/10 10:45:16;;;;;;;;;;;;;;;13.18;94.41;96172.28;4983816;28;19966;-70
2023/05/10 10:47:43;;;;;;;;;;;;;;;13.22;92.98;96169.16;5050166;28;20247;-69
2023/05/10 10:50:10;;;;;;;;;;;;;;;13.19;95.11;96186.25;4983061;28;19968;-70
2023/05/10 10:52:36;;;;;;;;;;;;;;;13.23;95.62;96182.09;4983724;28;19961;-70
2023/05/10 10:55:18;;;;;;;;;;;;;;;13.32;96.21;96178.03;4983358;28;19958;-70
2023/05/10 10:58:00;;;;;;;;;;;;;;;13.43;90.25;96149.22;4983562;28;19954;-75
2023/05/10 11:00:34;;;;;;;;;;;;;;;13.48;93.60;96160.63;4983014;28;19941;-72
2023/05/10 11:03:08;;;;;;;;;;;;;;;13.66;93.73;96150.84;5049794;28;20123;-72
2023/05/10 11:05:54;;;;;;;;;;;;;;;13.78;92.39;96159.41;4983047;28;19966;-72
2023/05/10 11:08:26;;;;;;;;;;;;;;;13.86;89.34;96130.00;4983286;28;19973;-72
2023/05/10 11:10:54;;;;;;;;;;;;;;;13.93;89.17;96138.50;5049786;28;19964;-72
2023/05/10 11:13:33;;;;;;;;;;;;;;;13.86;86.01;96131.81;4983379;28;20231;-72
2023/05/10 11:16:09;;;;;;;;;;;;;;;13.80;86.15;96129.13;4983282;28;20240;-74
2023/05/10 11:18:36;;;;;;;;;;;;;;;13.74;85.31;96126.69;5050309;28;20154;-75
2023/05/10 11:21:03;;;;;;;;;;;;;;;13.64;84.95;96131.84;4982768;28;19980;-76
2023/05/10 11:23:32;;;;;;;;;;;;;;;13.65;88.57;96165.03;4983219;28;19962;-75
2023/05/10 11:26:01;;;;;;;;;;;;;;;13.72;88.14;96155.91;4982849;28;20136;-76
2023/05/10 11:28:28;;;;;;;;;;;;;;;13.85;87.21;96148.69;4982814;28;19988;-76
2023/05/10 11:30:54;;;;;;;;;;;;;;;13.97;85.91;96149.38;4982870;28;19957;-77
2023/05/10 11:33:20;;;;;;;;;;;;;;;14.07;86.09;96144.22;4982885;28;19969;-71
2023/05/10 11:35:46;;;;;;;;;;;;;;;14.22;88.29;96164.66;4982918;28;19958;-85
2023/05/10 11:38:12;;;;;;;;;;;;;;;14.33;82.51;96120.72;5049423;28;19959;-84
2023/05/10 11:40:39;;;;;;;;;;;;;;;14.33;81.76;96126.78;4982447;28;20155;-84
2023/05/10 11:43:08;;;;;;;;;;;;;;;14.34;81.05;96119.66;4982895;28;19964;-83
2023/05/10 11:45:34;;;;;;;;;;;;;;;14.31;82.47;96131.53;4982508;28;19969;-83
2023/05/10 11:48:01;;;;;;;;;;;;;;;14.26;81.84;96126.22;4982759;28;19961;-84
2023/05/10 11:50:27;;;;;;;;;;;;;;;14.19;82.56;96123.78;4982879;28;19958;-76
2023/05/10 11:52:53;;;;;;;;;;;;;;;14.16;83.99;96144.56;4982430;28;20047;-72
2023/05/10 11:55:19;;;;;;;;;;;;;;;14.08;81.66;96137.09;4982840;28;19968;-73
2023/05/10 11:57:45;;;;;;;;;;;;;;;14.06;83.02;96147.09;4982499;28;19957;-72
2023/05/10 12:00:12;;;;;;;;;;;;;;;14.01;84.33;96164.44;4982755;28;19981;-72
2023/05/10 12:02:38;;;;;;;;;;;;;;;13.92;84.02;96157.19;4982558;28;19970;-72
2023/05/10 12:05:05;;;;;;;;;;;;;;;13.89;84.95;96166.41;4982543;28;19956;-72
2023/05/10 12:07:31;;;;;;;;;;;;;;;13.86;83.08;96150.28;4983083;28;19972;-72
2023/05/10 12:10:06;;;;;;;;;;;;;;;13.78;84.33;96164.69;4985426;28;19958;-72
2023/05/10 12:12:38;;;;;;;;;;;;;;;13.66;81.98;96149.00;4985599;28;19968;-75
2023/05/10 12:15:06;;;;;;;;;;;;;;;13.57;80.95;96142.56;4985686;28;19950;-75
2023/05/10 12:17:32;;;;;;;;;;;;;;;13.48;80.17;96136.91;4985530;28;19960;-75
2023/05/10 12:20:16;;;;;;;;;;;;;;;13.38;82.45;96153.38;4985967;28;19960;-75
2023/05/10 12:22:46;;;;;;;;;;;;;;;13.39;81.78;96143.63;4985645;28;19963;-75
2023/05/10 12:25:12;;;;;;;;;;;;;;;13.42;79.96;96143.16;4985669;28;19961;-75
2023/05/10 12:27:38;;;;;;;;;;;;;;;13.45;81.23;96139.25;4985611;28;19976;-70
2023/05/10 12:30:04;;;;;;;;;;;;;;;13.48;79.57;96134.28;4985726;28;20023;-69
2023/05/10 12:32:40;;;;;;;;;;;;;;;13.48;79.67;96129.00;4985671;28;19958;-84
2023/05/10 12:35:06;;;;;;;;;;;;;;;13.49;84.59;96170.09;4985210;28;20063;-83
2023/05/10 12:37:35;;;;;;;;;;;;;;;13.53;82.02;96157.25;4985504;28;19958;-83
2023/05/10 12:40:02;;;;;;;;;;;;;;;13.58;79.06;96129.13;4985269;28;20245;-82
2023/05/10 12:42:29;;;;;;;;;;;;;;;13.62;79.33;96126.00;4985522;28;19959;-83